createdAt,value
2023-04-09T00:01:46.358Z,23.45
2023-04-09T00:04:14.124Z,22.70
2023-04-09T00:06:42.064Z,21.83
2023-04-09T00:09:09.748Z,22.33
2023-04-09T00:11:37.724Z,22.40
2023-04-09T00:14:05.488Z,22.38
2023-04-09T00:16:33.548Z,21.88
2023-04-09T00:19:01.304Z,22.77
2023-04-09T00:21:29.229Z,21.30
2023-04-09T00:23:56.852Z,20.77
2023-04-09T00:26:24.776Z,21.42
2023-04-09T00:28:52.673Z,22.20
2023-04-09T00:31:21.255Z,20.70
2023-04-09T00:33:49.014Z,21.60
2023-04-09T00:36:17.026Z,20.67
2023-04-09T00:38:45.431Z,21.05
2023-04-09T00:41:13.457Z,22.25
2023-04-09T00:43:41.088Z,21.75
2023-04-09T00:46:09.307Z,21.30
2023-04-09T00:48:37.079Z,20.67
2023-04-09T00:51:05.327Z,22.38
2023-04-09T00:53:33.101Z,22.00
2023-04-09T00:56:01.862Z,21.52
2023-04-09T00:58:29.621Z,21.33
2023-04-09T01:00:57.609Z,23.27
2023-04-09T01:03:25.571Z,21.50
2023-04-09T01:06:44.004Z,22.58
2023-04-09T01:09:43.681Z,21.63
2023-04-09T01:12:24.390Z,22.38
2023-04-09T01:14:59.335Z,21.15
2023-04-09T01:17:42.870Z,22.48
2023-04-09T01:20:19.587Z,22.83
2023-04-09T01:22:52.864Z,21.15
2023-04-09T01:28:06.987Z,22.83
2023-04-09T01:30:35.376Z,22.80
2023-04-09T01:33:05.284Z,22.00
2023-04-09T01:35:33.119Z,21.20
2023-04-09T01:38:03.905Z,23.00
2023-04-09T01:40:31.686Z,24.83
2023-04-09T01:43:01.394Z,23.85
2023-04-09T01:45:29.267Z,22.38
2023-04-09T01:47:58.023Z,27.08
2023-04-09T01:50:26.044Z,25.60
2023-04-09T01:52:54.300Z,24.63
2023-04-09T01:55:21.921Z,24.48
2023-04-09T01:57:50.400Z,24.10
2023-04-09T02:00:18.294Z,24.73
2023-04-09T02:03:04.001Z,26.30
2023-04-09T02:05:37.541Z,24.45
2023-04-09T02:08:10.953Z,25.48
2023-04-09T02:10:40.510Z,23.97
2023-04-09T02:13:13.848Z,23.30
2023-04-09T02:15:43.628Z,24.27
2023-04-09T02:18:28.825Z,23.65
2023-04-09T02:20:57.433Z,23.65
2023-04-09T02:23:27.096Z,24.80
2023-04-09T02:25:55.326Z,23.17
2023-04-09T02:28:23.222Z,23.33
2023-04-09T02:30:52.786Z,23.00
2023-04-09T02:33:20.785Z,22.52
2023-04-09T02:35:48.711Z,22.38
2023-04-09T02:38:16.696Z,23.20
2023-04-09T02:40:44.385Z,23.73
2023-04-09T02:43:12.549Z,22.52
2023-04-09T02:45:40.305Z,23.70
2023-04-09T02:48:08.184Z,24.08
2023-04-09T02:50:36.696Z,23.65
2023-04-09T02:53:04.743Z,25.10
2023-04-09T02:55:32.616Z,24.95
2023-04-09T02:58:00.813Z,24.90
2023-04-09T03:00:28.522Z,24.75
2023-04-09T03:02:58.141Z,24.88
2023-04-09T03:05:25.995Z,24.85
2023-04-09T03:07:54.987Z,25.08
2023-04-09T03:10:22.858Z,25.83
2023-04-09T03:12:50.800Z,24.08
2023-04-09T03:15:18.557Z,23.75
2023-04-09T03:17:46.514Z,23.45
2023-04-09T03:20:14.810Z,23.55
2023-04-09T03:22:42.983Z,23.95
2023-04-09T03:25:28.384Z,23.20
2023-04-09T03:27:56.969Z,23.25
2023-04-09T03:30:36.509Z,23.83
2023-04-09T03:33:07.070Z,24.30
2023-04-09T03:35:43.370Z,23.25
2023-04-09T03:38:12.596Z,24.73
2023-04-09T03:40:42.737Z,24.73
2023-04-09T03:43:10.756Z,23.83
2023-04-09T03:45:41.529Z,23.25
2023-04-09T03:48:18.359Z,24.58
2023-04-09T03:50:46.657Z,25.33
2023-04-09T03:53:18.381Z,24.23
2023-04-09T03:55:46.878Z,25.35
2023-04-09T03:58:21.863Z,25.65
2023-04-09T04:00:49.692Z,24.95
2023-04-09T04:03:34.491Z,25.63
2023-04-09T04:06:16.738Z,27.60
2023-04-09T04:08:53.555Z,30.85
2023-04-09T04:11:26.709Z,27.80
2023-04-09T04:13:56.552Z,26.75
2023-04-09T04:16:25.385Z,27.90
2023-04-09T04:18:54.549Z,27.88
2023-04-09T04:21:22.752Z,28.88
2023-04-09T04:23:58.173Z,30.80
2023-04-09T04:26:28.713Z,29.15
2023-04-09T04:28:57.180Z,29.25
2023-04-09T04:31:47.779Z,29.63
2023-04-09T04:34:19.200Z,29.88
2023-04-09T04:36:52.073Z,29.30
2023-04-09T04:39:21.007Z,29.40
2023-04-09T04:41:57.262Z,31.23
2023-04-09T04:44:28.263Z,42.70
2023-04-09T04:47:08.582Z,38.42
2023-04-09T04:49:37.514Z,30.88
2023-04-09T04:52:07.922Z,31.15
2023-04-09T04:54:37.052Z,27.67
2023-04-09T04:57:04.853Z,26.38
2023-04-09T04:59:40.924Z,26.90
2023-04-09T05:02:11.841Z,25.80
2023-04-09T05:05:02.954Z,27.88
2023-04-09T05:07:37.473Z,26.95
2023-04-09T05:10:07.773Z,25.48
2023-04-09T05:12:39.558Z,26.65
2023-04-09T05:15:08.757Z,26.27
2023-04-09T05:17:38.332Z,25.52
2023-04-09T05:20:08.462Z,26.88
2023-04-09T05:22:52.775Z,26.58
2023-04-09T05:25:27.441Z,25.52
2023-04-09T05:27:55.984Z,26.80
2023-04-09T05:30:25.941Z,25.85
2023-04-09T05:32:54.406Z,25.25
2023-04-09T05:35:27.209Z,25.42
2023-04-09T05:37:55.057Z,24.42
2023-04-09T05:40:23.303Z,22.80
2023-04-09T05:42:52.110Z,22.00
2023-04-09T05:45:36.603Z,20.15
2023-04-09T05:48:04.511Z,20.30
2023-04-09T05:50:40.676Z,18.98
2023-04-09T05:53:15.886Z,18.80
2023-04-09T05:55:44.031Z,17.98
2023-04-09T05:58:12.657Z,17.45
2023-04-09T06:00:40.846Z,17.65
2023-04-09T06:03:10.538Z,17.67
2023-04-09T06:05:39.267Z,18.55
2023-04-09T06:08:08.518Z,21.52
2023-04-09T06:10:36.693Z,19.02
2023-04-09T06:13:04.350Z,18.42
2023-04-09T06:15:32.776Z,16.17
2023-04-09T06:18:00.491Z,15.73
2023-04-09T06:20:28.591Z,14.63
2023-04-09T06:22:56.276Z,13.52
2023-04-09T06:25:24.538Z,15.20
2023-04-09T06:27:52.224Z,15.00
2023-04-09T06:30:20.375Z,14.60
2023-04-09T06:32:54.495Z,14.98
2023-04-09T06:35:23.634Z,15.82
2023-04-09T06:37:51.433Z,15.27
2023-04-09T06:40:20.739Z,16.15
2023-04-09T06:42:50.397Z,15.52
2023-04-09T06:45:24.030Z,15.25
2023-04-09T06:47:51.692Z,15.07
2023-04-09T06:50:19.721Z,15.02
2023-04-09T06:52:47.370Z,14.82
2023-04-09T06:55:15.565Z,13.35
2023-04-09T06:57:43.362Z,14.68
2023-04-09T07:00:11.791Z,15.18
2023-04-09T07:02:39.941Z,15.70
2023-04-09T07:05:08.632Z,15.80
2023-04-09T07:07:36.306Z,15.55
2023-04-09T07:10:04.430Z,15.73
2023-04-09T07:12:34.616Z,16.15
2023-04-09T07:15:05.239Z,18.88
2023-04-09T07:17:34.015Z,18.77
2023-04-09T07:20:02.286Z,18.75
2023-04-09T07:22:30.761Z,18.73
2023-04-09T07:24:58.700Z,17.00
2023-04-09T07:27:27.894Z,16.95
2023-04-09T07:30:00.032Z,13.48
2023-04-09T07:32:28.610Z,14.10
2023-04-09T07:34:57.418Z,13.43
2023-04-09T07:37:25.638Z,12.93
2023-04-09T07:39:53.883Z,14.43
2023-04-09T07:42:21.948Z,12.85
2023-04-09T07:44:50.152Z,12.93
2023-04-09T07:47:18.014Z,12.43
2023-04-09T07:49:46.221Z,12.70
2023-04-09T07:52:13.824Z,12.32
2023-04-09T07:54:41.797Z,12.07
2023-04-09T07:57:09.443Z,11.98
2023-04-09T07:59:37.531Z,11.43
2023-04-09T08:02:05.588Z,11.32
2023-04-09T08:04:33.827Z,10.85
2023-04-09T08:07:01.485Z,11.23
2023-04-09T08:09:29.396Z,11.02
2023-04-09T08:11:57.356Z,11.10
2023-04-09T08:14:25.501Z,11.13
2023-04-09T08:16:53.390Z,11.68
2023-04-09T08:19:21.490Z,11.25
2023-04-09T08:21:49.688Z,11.48
2023-04-09T08:24:18.378Z,11.65
2023-04-09T08:26:46.329Z,11.00
2023-04-09T08:29:15.043Z,11.15
2023-04-09T08:31:43.229Z,11.18
2023-04-09T08:34:11.295Z,10.93
2023-04-09T08:36:39.513Z,10.60
2023-04-09T08:39:07.552Z,11.48
2023-04-09T08:41:38.254Z,11.50
2023-04-09T08:44:06.246Z,10.77
2023-04-09T08:46:36.953Z,10.95
2023-04-09T08:49:04.997Z,11.07
2023-04-09T08:51:32.753Z,10.85
2023-04-09T08:54:04.477Z,11.07
2023-04-09T08:56:33.040Z,11.82
2023-04-09T08:59:01.022Z,11.30
2023-04-09T09:01:31.049Z,10.68
2023-04-09T09:04:01.988Z,11.27
2023-04-09T09:06:33.227Z,11.68
2023-04-09T09:09:15.088Z,11.50
2023-04-09T09:11:43.724Z,11.05
2023-04-09T09:14:14.261Z,11.27
2023-04-09T09:16:55.548Z,11.25
2023-04-09T09:19:34.279Z,11.52
2023-04-09T09:22:08.054Z,11.40
2023-04-09T09:24:50.670Z,10.98
2023-04-09T09:27:37.155Z,11.10
2023-04-09T09:30:07.029Z,10.68
2023-04-09T09:32:35.653Z,10.30
2023-04-09T09:35:06.226Z,11.50
2023-04-09T09:37:34.763Z,12.07
2023-04-09T09:40:03.031Z,11.43
2023-04-09T09:42:31.858Z,12.13
2023-04-09T09:45:00.786Z,12.25
2023-04-09T09:47:29.753Z,12.32
2023-04-09T09:49:57.729Z,11.82
2023-04-09T09:52:28.358Z,11.23
2023-04-09T09:55:01.313Z,11.68
2023-04-09T09:57:31.249Z,11.68
2023-04-09T10:00:04.510Z,12.15
2023-04-09T10:02:47.830Z,11.85
2023-04-09T10:05:16.576Z,11.10
2023-04-09T10:07:45.044Z,10.80
2023-04-09T10:10:13.252Z,11.30
2023-04-09T10:12:41.993Z,10.50
2023-04-09T10:15:10.609Z,9.65
2023-04-09T10:17:39.022Z,9.65
2023-04-09T10:20:31.201Z,9.95
2023-04-09T10:23:03.301Z,8.75
2023-04-09T10:25:31.318Z,9.18
2023-04-09T10:28:03.439Z,9.77
2023-04-09T10:30:36.182Z,8.82
2023-04-09T10:33:22.073Z,8.63
2023-04-09T10:35:50.209Z,9.18
2023-04-09T10:38:32.782Z,9.52
2023-04-09T10:41:06.362Z,9.30
2023-04-09T10:43:36.545Z,9.18
2023-04-09T10:46:26.173Z,9.30
2023-04-09T10:49:24.370Z,9.10
2023-04-09T10:52:08.002Z,8.70
2023-04-09T10:54:46.408Z,9.13
2023-04-09T10:57:24.613Z,9.00
2023-04-09T10:59:54.786Z,7.85
2023-04-09T11:02:31.977Z,8.32
2023-04-09T11:05:24.846Z,8.52
2023-04-09T11:08:06.256Z,7.60
2023-04-09T11:10:34.549Z,6.88
2023-04-09T11:13:03.244Z,7.45
2023-04-09T11:15:34.565Z,7.30
2023-04-09T11:18:03.331Z,8.65
2023-04-09T11:20:33.410Z,7.60
2023-04-09T11:23:01.722Z,8.38
2023-04-09T11:25:32.304Z,7.80
2023-04-09T11:28:02.658Z,8.00
2023-04-09T11:30:31.343Z,7.97
2023-04-09T11:32:59.310Z,7.93
2023-04-09T11:35:27.410Z,7.90
2023-04-09T11:37:55.465Z,7.50
2023-04-09T11:40:25.760Z,7.32
2023-04-09T11:42:55.704Z,7.93
2023-04-09T11:45:28.057Z,7.22
2023-04-09T11:47:56.574Z,7.47
2023-04-09T11:50:25.047Z,7.95
2023-04-09T11:52:53.256Z,7.07
2023-04-09T11:55:24.852Z,7.30
2023-04-09T11:57:57.477Z,8.13
2023-04-09T12:00:25.507Z,7.13
2023-04-09T12:03:04.969Z,7.22
2023-04-09T12:05:37.113Z,6.85
2023-04-09T12:08:08.702Z,6.88
2023-04-09T12:10:38.596Z,6.63
2023-04-09T12:13:10.563Z,6.45
2023-04-09T12:15:46.226Z,7.30
2023-04-09T12:18:14.642Z,6.43
2023-04-09T12:20:44.293Z,6.40
2023-04-09T12:23:13.472Z,6.50
2023-04-09T12:25:43.066Z,6.07
2023-04-09T12:28:15.891Z,6.97
2023-04-09T12:30:43.972Z,6.10
2023-04-09T12:33:12.179Z,6.50
2023-04-09T12:35:40.042Z,6.85
2023-04-09T12:38:08.081Z,7.85
2023-04-09T12:40:37.024Z,7.32
2023-04-09T12:43:05.656Z,7.53
2023-04-09T12:45:33.864Z,7.25
2023-04-09T12:48:02.228Z,7.43
2023-04-09T12:50:30.077Z,8.15
2023-04-09T12:52:58.065Z,8.10
2023-04-09T12:55:25.807Z,8.30
2023-04-09T12:57:53.702Z,8.18
2023-04-09T13:00:21.541Z,8.30
2023-04-09T13:02:49.995Z,8.73
2023-04-09T13:05:17.777Z,7.32
2023-04-09T13:07:46.177Z,8.65
2023-04-09T13:10:13.847Z,8.48
2023-04-09T13:12:41.903Z,8.70
2023-04-09T13:15:09.873Z,8.90
2023-04-09T13:17:37.836Z,9.10
2023-04-09T13:20:06.044Z,9.02
2023-04-09T13:22:33.948Z,9.43
2023-04-09T13:25:01.805Z,9.60
2023-04-09T13:27:29.788Z,10.05
2023-04-09T13:29:57.529Z,10.25
2023-04-09T13:32:25.635Z,10.88
2023-04-09T13:34:55.292Z,9.30
2023-04-09T13:37:24.569Z,9.75
2023-04-09T13:39:52.362Z,9.10
2023-04-09T13:42:20.281Z,9.40
2023-04-09T13:44:47.966Z,9.52
2023-04-09T13:47:17.130Z,9.18
2023-04-09T13:49:45.361Z,8.85
2023-04-09T13:52:14.858Z,9.85
2023-04-09T13:54:42.623Z,9.95
2023-04-09T13:57:10.710Z,10.55
2023-04-09T13:59:38.405Z,10.25
2023-04-09T14:02:06.558Z,9.68
2023-04-09T14:04:34.523Z,9.23
2023-04-09T14:07:02.591Z,9.30
2023-04-09T14:09:30.635Z,9.35
2023-04-09T14:11:58.674Z,8.40
2023-04-09T14:14:26.721Z,8.43
2023-04-09T14:16:55.416Z,9.73
2023-04-09T14:19:23.702Z,9.07
2023-04-09T14:21:53.335Z,8.93
2023-04-09T14:24:23.176Z,8.43
2023-04-09T14:26:53.613Z,8.15
2023-04-09T14:29:22.135Z,7.10
2023-04-09T14:31:50.308Z,6.20
2023-04-09T14:34:18.158Z,6.10
2023-04-09T14:36:46.017Z,5.35
2023-04-09T14:39:13.854Z,4.75
2023-04-09T14:41:41.877Z,5.40
2023-04-09T14:44:09.597Z,5.03
2023-04-09T14:46:37.599Z,5.50
2023-04-09T14:49:05.337Z,5.07
2023-04-09T14:51:34.007Z,5.22
2023-04-09T14:54:01.839Z,5.00
2023-04-09T14:56:29.827Z,5.43
2023-04-09T14:58:57.702Z,5.75
2023-04-09T15:01:27.165Z,5.32
2023-04-09T15:03:55.837Z,4.75
2023-04-09T15:06:24.032Z,5.10
2023-04-09T15:08:52.071Z,4.47
2023-04-09T15:11:23.008Z,4.40
2023-04-09T15:13:51.527Z,4.93
2023-04-09T15:16:24.817Z,4.22
2023-04-09T15:18:56.206Z,3.88
2023-04-09T15:21:24.530Z,4.20
2023-04-09T15:23:53.114Z,4.28
2023-04-09T15:26:21.427Z,3.83
2023-04-09T15:28:49.418Z,3.63
2023-04-09T15:31:17.413Z,4.13
2023-04-09T15:33:45.754Z,3.70
2023-04-09T15:36:13.759Z,3.97
2023-04-09T15:38:41.483Z,4.22
2023-04-09T15:41:10.565Z,4.75
2023-04-09T15:43:38.286Z,4.80
2023-04-09T15:46:12.542Z,5.35
2023-04-09T15:51:09.058Z,5.68
2023-04-09T15:53:37.009Z,5.88
2023-04-09T15:56:05.573Z,5.72
2023-04-09T15:58:33.382Z,5.40
2023-04-09T16:01:01.557Z,5.38
2023-04-09T16:03:29.400Z,5.07
2023-04-09T16:05:57.285Z,4.57
2023-04-09T16:08:26.242Z,5.03
2023-04-09T16:10:54.214Z,6.05
2023-04-09T16:13:21.813Z,5.55
2023-04-09T16:15:51.145Z,5.43
2023-04-09T16:18:18.914Z,5.13
2023-04-09T16:20:47.161Z,5.88
2023-04-09T16:23:14.813Z,5.95
2023-04-09T16:25:42.886Z,6.20
2023-04-09T16:28:10.712Z,5.78
2023-04-09T16:30:38.654Z,5.78
2023-04-09T16:33:08.747Z,5.85
2023-04-09T16:35:39.442Z,6.50
2023-04-09T16:38:07.853Z,7.32
2023-04-09T16:40:35.965Z,6.75
2023-04-09T16:43:03.887Z,7.93
2023-04-09T16:45:32.113Z,7.00
2023-04-09T16:47:59.939Z,6.90
2023-04-09T16:50:27.888Z,7.07
2023-04-09T16:52:55.611Z,7.25
2023-04-09T16:55:23.719Z,7.20
2023-04-09T16:57:51.395Z,7.20
2023-04-09T17:00:20.916Z,7.20
2023-04-09T17:02:49.054Z,7.78
2023-04-09T17:05:17.974Z,8.10
2023-04-09T17:07:45.845Z,8.40
2023-04-09T17:10:14.694Z,8.32
2023-04-09T17:12:42.820Z,9.38
2023-04-09T17:15:11.344Z,11.15
2023-04-09T17:17:39.027Z,11.68
2023-04-09T17:20:07.704Z,12.77
2023-04-09T17:22:35.675Z,15.55
2023-04-09T17:25:04.810Z,20.45
2023-04-09T17:27:32.520Z,24.35
2023-04-09T17:30:00.522Z,20.50
2023-04-09T17:32:28.247Z,19.00
2023-04-09T17:34:56.172Z,16.05
2023-04-09T17:37:24.279Z,14.55
2023-04-09T17:39:52.213Z,10.75
2023-04-09T17:42:21.920Z,9.98
2023-04-09T17:44:50.585Z,9.55
2023-04-09T17:47:18.773Z,9.63
2023-04-09T17:49:46.784Z,9.65
2023-04-09T17:52:14.864Z,9.32
2023-04-09T17:54:45.506Z,10.05
2023-04-09T17:57:14.035Z,10.18
2023-04-09T17:59:41.957Z,10.00
2023-04-09T18:02:09.846Z,10.48
2023-04-09T18:04:38.379Z,11.13
2023-04-09T18:07:06.387Z,10.50
2023-04-09T18:09:34.507Z,10.50
2023-04-09T18:12:02.832Z,10.82
2023-04-09T18:14:32.466Z,11.57
2023-04-09T18:17:01.123Z,11.35
2023-04-09T18:19:29.247Z,11.38
2023-04-09T18:21:56.951Z,11.75
2023-04-09T18:24:26.279Z,13.18
2023-04-09T18:26:53.876Z,12.45
2023-04-09T18:29:21.888Z,13.13
2023-04-09T18:31:49.481Z,14.70
2023-04-09T18:34:17.823Z,13.60
2023-04-09T18:36:45.562Z,14.10
2023-04-09T18:39:13.499Z,12.90
2023-04-09T18:41:42.407Z,13.23
2023-04-09T18:44:10.840Z,13.27
2023-04-09T18:46:38.625Z,13.18
2023-04-09T18:49:07.094Z,12.65
2023-04-09T18:51:34.713Z,11.80
2023-04-09T18:54:02.849Z,12.30
2023-04-09T18:56:30.442Z,13.35
2023-04-09T18:58:58.318Z,12.88
2023-04-09T19:01:26.042Z,13.75
2023-04-09T19:03:54.502Z,14.45
2023-04-09T19:06:23.382Z,12.68
2023-04-09T19:08:57.218Z,13.10
2023-04-09T19:11:26.077Z,13.00
2023-04-09T19:13:54.089Z,12.48
2023-04-09T19:16:22.082Z,12.70
2023-04-09T19:18:50.028Z,12.45
2023-04-09T19:21:18.618Z,12.73
2023-04-09T19:23:46.855Z,12.55
2023-04-09T19:26:14.800Z,12.38
2023-04-09T19:28:42.752Z,12.73
2023-04-09T19:31:12.721Z,12.95
2023-04-09T19:33:40.751Z,14.43
2023-04-09T19:36:08.417Z,14.02
2023-04-09T19:38:36.460Z,15.07
2023-04-09T19:41:04.389Z,15.18
2023-04-09T19:43:32.357Z,14.18
2023-04-09T19:46:04.288Z,13.90
2023-04-09T19:48:32.353Z,15.05
2023-04-09T19:50:59.924Z,14.13
2023-04-09T19:53:28.009Z,14.63
2023-04-09T19:55:55.671Z,14.65
2023-04-09T19:58:24.069Z,15.40
2023-04-09T20:00:51.746Z,14.85
2023-04-09T20:03:19.773Z,15.57
2023-04-09T20:05:47.866Z,15.32
2023-04-09T20:08:16.063Z,15.60
2023-04-09T20:10:46.447Z,16.38
2023-04-09T20:13:14.630Z,16.95
2023-04-09T20:15:42.924Z,17.50
2023-04-09T20:18:11.214Z,18.27
2023-04-09T20:20:38.826Z,17.80
2023-04-09T20:23:06.687Z,18.00
2023-04-09T20:25:36.604Z,17.30
2023-04-09T20:28:04.894Z,17.55
2023-04-09T20:30:32.650Z,17.85
2023-04-09T20:33:01.354Z,18.35
2023-04-09T20:35:29.224Z,20.25
2023-04-09T20:37:57.229Z,18.35
2023-04-09T20:40:25.121Z,20.67
2023-04-09T20:42:53.078Z,16.88
2023-04-09T20:45:20.796Z,17.40
2023-04-09T20:47:49.748Z,18.02
2023-04-09T20:50:19.392Z,18.17
2023-04-09T20:52:47.922Z,21.25
2023-04-09T20:55:15.596Z,21.60
2023-04-09T20:57:43.898Z,20.67
2023-04-09T21:00:12.167Z,19.40
2023-04-09T21:02:41.109Z,20.45
2023-04-09T21:05:21.768Z,21.95
2023-04-09T21:07:54.509Z,19.77
2023-04-09T21:10:22.166Z,17.52
2023-04-09T21:12:50.205Z,18.63
2023-04-09T21:15:17.928Z,18.42
2023-04-09T21:17:46.064Z,18.23
2023-04-09T21:20:15.182Z,16.48
2023-04-09T21:22:43.151Z,17.25
2023-04-09T21:25:12.646Z,17.98
2023-04-09T21:27:42.131Z,17.55
2023-04-09T21:30:10.031Z,17.63
2023-04-09T21:32:38.525Z,19.27
2023-04-09T21:35:06.657Z,20.58
2023-04-09T21:37:36.315Z,18.55
2023-04-09T21:40:04.779Z,17.98
2023-04-09T21:42:32.651Z,17.35
2023-04-09T21:45:01.415Z,18.20
2023-04-09T21:47:29.468Z,17.25
2023-04-09T21:49:57.655Z,17.42
2023-04-09T21:52:26.312Z,16.73
2023-04-09T21:54:54.073Z,18.60
2023-04-09T21:57:22.686Z,18.27
2023-04-09T21:59:50.397Z,17.70
2023-04-09T22:02:18.532Z,17.80
2023-04-09T22:04:46.610Z,18.17
2023-04-09T22:07:14.557Z,18.00
2023-04-09T22:09:42.243Z,18.02
2023-04-09T22:12:10.171Z,18.63
2023-04-09T22:14:39.168Z,18.80
2023-04-09T22:17:08.844Z,19.63
2023-04-09T22:19:36.479Z,18.25
2023-04-09T22:22:04.603Z,16.88
2023-04-09T22:24:32.297Z,18.17
2023-04-09T22:27:01.670Z,20.02
2023-04-09T22:29:29.698Z,20.38
2023-04-09T22:31:58.121Z,20.13
2023-04-09T22:34:26.309Z,18.90
2023-04-09T22:36:54.315Z,19.05
2023-04-09T22:39:21.966Z,19.35
2023-04-09T22:41:49.879Z,18.13
2023-04-09T22:44:17.610Z,19.13
2023-04-09T22:46:46.301Z,18.13
2023-04-09T22:49:14.256Z,18.02
2023-04-09T22:51:42.704Z,18.38
2023-04-09T22:54:10.493Z,18.15
2023-04-09T22:56:38.623Z,17.80
2023-04-09T22:59:06.309Z,17.80
2023-04-09T23:01:34.408Z,18.95
2023-04-09T23:04:02.165Z,20.35
2023-04-09T23:06:31.012Z,20.35
2023-04-09T23:09:00.027Z,19.70
2023-04-09T23:11:28.192Z,22.02
2023-04-09T23:13:56.045Z,21.02
2023-04-09T23:16:24.068Z,21.13
2023-04-09T23:18:51.889Z,20.75
2023-04-09T23:21:19.950Z,21.38
2023-04-09T23:23:47.646Z,19.80
2023-04-09T23:26:15.586Z,20.10
2023-04-09T23:28:43.210Z,20.00
2023-04-09T23:31:11.507Z,21.00
2023-04-09T23:33:39.237Z,21.25
2023-04-09T23:36:07.513Z,22.08
2023-04-09T23:38:35.380Z,20.85
2023-04-09T23:41:03.389Z,21.52
2023-04-09T23:43:31.215Z,21.02
2023-04-09T23:45:59.093Z,21.15
2023-04-09T23:48:26.793Z,21.50
2023-04-09T23:50:54.780Z,22.70
2023-04-09T23:53:22.379Z,25.77
2023-04-09T23:55:51.094Z,24.42
2023-04-09T23:58:18.963Z,24.85
